Aeroporto :
LOGIN :

Iscrizione | Disclaimer

   EN    FR    IT 

 










Sommario :    VFR   VFR Marginale   IFR   IFR Intensivo   IFR Molto Intensivo
Visibilità : 
Base nubi : 
>= 8 km
>= 3000ft
5 / 8 km
1000 / 3000 ft
1500m / 5 km
500 / 1000 ft
800 / 1500m
200 / 500 ft
< 800m
< 200 ft
Simboli :   Temporali  Nebbia  Neve Forte  Precipitazioni Forti  Vento > 20 kt
SIGMETs :   Varie  Temporali  Ghiacco  Turbolenza  Onda orograficha  Ceneri Vulcaniche






- Altitudine del aeroporto : 313 ft


LFQA - Reims-Prunay

ULTIMO METAR :
  • 191730Z AUTO 09005KT 5000 BR NSC 01/M00 Q1019

METARs OBSOLETI :
  • 191700Z AUTO 10003KT 6000 NSC 01/00 Q1019
  • 191630Z AUTO 10002KT 7000 NSC 02/02 Q1019
  • 191600Z AUTO 10004KT CAVOK 03/02 Q1018
  • 191530Z AUTO 09005KT CAVOK 05/03 Q1018
  • 191500Z AUTO 09005KT 6000 2900 NSC 06/04 Q1018

TAF N/A



MetMap, La meteo Aeronautica in un colpo d'occhio ! - Copyright ORBIFLY Dicembre 2007 - Disclaimer

ORBIFLY MET'MAP TEAM :

Programmazione e sviluppo : Alexandra Zaïnal
Concezione e sviluppo : Baudouin d'Aumeries
Co-Programmazione e sviluppo : Marc-Olivier Méhu
Supporto tecnico e logistico : Manuel Goepfert
Aiuto per la traduzione : Arnaldo La Scala

Contatto : metmap@orbifly.com




FONTI E CREDITI :

   NOAA